createdAt,value
2018-06-14T00:01:41.068Z,67.27
2018-06-14T00:04:09.096Z,66.74
2018-06-14T00:06:37.091Z,66.72
2018-06-14T00:09:07.468Z,67.15
2018-06-14T00:11:35.457Z,66.71
2018-06-14T00:14:04.396Z,66.30
2018-06-14T00:16:32.407Z,65.87
2018-06-14T00:19:00.474Z,65.26
2018-06-14T00:21:28.466Z,65.75
2018-06-14T00:23:56.472Z,65.56
2018-06-14T00:26:24.433Z,64.81
2018-06-14T00:28:52.449Z,64.17
2018-06-14T00:31:21.096Z,64.96
2018-06-14T00:33:49.266Z,65.60
2018-06-14T00:36:17.276Z,64.50
2018-06-14T00:38:45.323Z,65.70
2018-06-14T00:41:13.318Z,64.96
2018-06-14T00:43:41.300Z,64.62
2018-06-14T00:46:09.329Z,65.07
2018-06-14T00:48:37.353Z,65.85
2018-06-14T00:51:05.358Z,65.17
2018-06-14T00:53:33.369Z,64.98
2018-06-14T00:56:01.364Z,65.16
2018-06-14T00:58:29.400Z,64.30
2018-06-14T01:00:57.392Z,64.44
2018-06-14T01:03:25.428Z,64.30
2018-06-14T01:05:53.445Z,63.56
2018-06-14T01:08:21.559Z,63.91
2018-06-14T01:10:49.569Z,63.29
2018-06-14T01:13:17.586Z,63.24
2018-06-14T01:15:45.723Z,63.42
2018-06-14T01:18:13.713Z,63.84
2018-06-14T01:20:41.724Z,63.01
2018-06-14T01:23:09.739Z,63.67
2018-06-14T01:25:37.732Z,63.58
2018-06-14T01:28:05.700Z,63.32
2018-06-14T01:30:33.776Z,63.27
2018-06-14T01:33:01.830Z,62.97
2018-06-14T01:35:30.217Z,63.37
2018-06-14T01:38:09.678Z,62.88
2018-06-14T01:40:37.708Z,63.54
2018-06-14T01:43:05.827Z,63.01
2018-06-14T01:45:34.328Z,63.28
2018-06-14T01:48:02.332Z,63.70
2018-06-14T01:50:30.341Z,64.18
2018-06-14T01:52:58.339Z,63.79
2018-06-14T01:55:29.672Z,64.42
2018-06-14T01:57:57.673Z,63.40
2018-06-14T02:00:25.660Z,62.36
2018-06-14T02:02:53.710Z,62.57
2018-06-14T02:05:21.716Z,62.00
2018-06-14T02:07:49.746Z,61.89
2018-06-14T02:10:17.775Z,62.21
2018-06-14T02:12:45.816Z,62.81
2018-06-14T02:15:13.837Z,63.32
2018-06-14T02:17:41.801Z,62.36
2018-06-14T02:20:09.813Z,62.98
2018-06-14T02:22:37.801Z,62.92
2018-06-14T02:25:05.921Z,64.05
2018-06-14T02:27:33.988Z,64.39
2018-06-14T02:30:02.004Z,63.18
2018-06-14T02:32:30.225Z,63.58
2018-06-14T02:34:58.274Z,63.93
2018-06-14T02:37:26.880Z,63.94
2018-06-14T02:39:54.898Z,64.58
2018-06-14T02:42:22.876Z,64.49
2018-06-14T02:44:50.903Z,64.26
2018-06-14T02:47:18.953Z,63.11
2018-06-14T02:49:46.907Z,64.34
2018-06-14T02:52:14.896Z,63.68
2018-06-14T02:54:42.897Z,64.18
2018-06-14T02:57:10.901Z,64.30
2018-06-14T02:59:38.937Z,63.63
2018-06-14T03:02:07.012Z,64.49
2018-06-14T03:04:35.036Z,64.01
2018-06-14T03:07:03.073Z,64.61
2018-06-14T03:09:31.072Z,64.71
2018-06-14T03:11:59.095Z,65.73
2018-06-14T03:14:27.124Z,65.89
2018-06-14T03:16:55.136Z,65.75
2018-06-14T03:19:23.125Z,64.86
2018-06-14T03:21:51.161Z,65.61
2018-06-14T03:24:19.160Z,64.64
2018-06-14T03:26:47.165Z,64.87
2018-06-14T03:29:15.329Z,66.10
2018-06-14T03:34:19.884Z,66.51
2018-06-14T03:36:47.889Z,66.95
2018-06-14T03:39:15.856Z,66.50
2018-06-14T03:41:43.840Z,66.46
2018-06-14T03:44:11.810Z,66.20
2018-06-14T03:46:39.798Z,66.78
2018-06-14T03:49:07.801Z,66.00
2018-06-14T03:51:35.842Z,65.92
2018-06-14T03:54:03.853Z,66.14
2018-06-14T03:56:31.856Z,64.77
2018-06-14T03:58:59.868Z,66.37
2018-06-14T04:01:27.852Z,66.02
2018-06-14T04:03:55.913Z,65.70
2018-06-14T04:06:23.919Z,66.26
2018-06-14T04:08:51.949Z,65.97
2018-06-14T04:11:20.061Z,64.97
2018-06-14T04:13:48.068Z,64.81
2018-06-14T04:16:16.097Z,64.63
2018-06-14T04:18:44.115Z,64.61
2018-06-14T04:21:12.141Z,65.31
2018-06-14T04:23:40.137Z,64.74
2018-06-14T04:26:08.204Z,64.10
2018-06-14T04:28:36.341Z,64.94
2018-06-14T04:31:04.436Z,64.68
2018-06-14T04:33:32.416Z,65.35
2018-06-14T04:36:00.441Z,65.51
2018-06-14T04:38:28.580Z,64.99
2018-06-14T04:40:56.806Z,64.53
2018-06-14T04:43:24.924Z,64.87
2018-06-14T04:45:52.976Z,64.81
2018-06-14T04:48:20.997Z,65.06
2018-06-14T04:50:48.993Z,65.42
2018-06-14T04:53:16.977Z,65.87
2018-06-14T04:55:44.987Z,65.41
2018-06-14T04:58:12.992Z,65.12
2018-06-14T05:00:41.020Z,64.88
2018-06-14T05:03:09.068Z,64.24
2018-06-14T05:05:37.123Z,63.41
2018-06-14T05:08:05.274Z,63.58
2018-06-14T05:10:33.275Z,62.60
2018-06-14T05:13:01.320Z,62.47
2018-06-14T05:15:29.326Z,61.37
2018-06-14T05:17:57.358Z,61.33
2018-06-14T05:20:25.345Z,60.34
2018-06-14T05:22:53.417Z,60.33
2018-06-14T05:25:21.465Z,59.87
2018-06-14T05:27:49.447Z,59.62
2018-06-14T05:30:17.424Z,56.65
2018-06-14T05:32:45.436Z,55.34
2018-06-14T05:35:13.480Z,54.28
2018-06-14T05:37:41.504Z,52.22
2018-06-14T05:40:09.498Z,48.66
2018-06-14T05:42:37.520Z,45.48
2018-06-14T05:45:05.492Z,43.23
2018-06-14T05:47:33.485Z,42.27
2018-06-14T05:50:01.468Z,42.17
2018-06-14T05:52:29.453Z,41.41
2018-06-14T05:54:57.539Z,40.79
2018-06-14T05:57:25.536Z,41.49
2018-06-14T05:59:53.517Z,43.39
2018-06-14T06:02:21.518Z,44.90
2018-06-14T06:04:49.509Z,45.62
2018-06-14T06:07:17.500Z,47.81
2018-06-14T06:09:45.512Z,47.66
2018-06-14T06:12:13.523Z,49.03
2018-06-14T06:14:41.546Z,50.08
2018-06-14T06:17:09.784Z,50.22
2018-06-14T06:19:37.828Z,49.37
2018-06-14T06:22:05.860Z,51.24
2018-06-14T06:24:33.944Z,50.11
2018-06-14T06:27:02.168Z,48.04
2018-06-14T06:29:30.353Z,46.82
2018-06-14T06:31:58.437Z,45.46
2018-06-14T06:34:26.432Z,43.25
2018-06-14T06:36:54.421Z,42.30
2018-06-14T06:39:22.414Z,39.95
2018-06-14T06:41:50.406Z,37.54
2018-06-14T06:44:18.441Z,37.66
2018-06-14T06:46:46.469Z,36.80
2018-06-14T06:49:14.576Z,37.58
2018-06-14T06:51:42.595Z,37.91
2018-06-14T06:54:11.289Z,39.06
2018-06-14T06:56:39.347Z,37.99
2018-06-14T06:59:07.357Z,38.96
2018-06-14T07:01:35.365Z,38.29
2018-06-14T07:04:03.391Z,38.14
2018-06-14T07:06:31.435Z,37.86
2018-06-14T07:08:59.458Z,38.03
2018-06-14T07:11:27.616Z,39.46
2018-06-14T07:13:55.641Z,39.37
2018-06-14T07:16:23.689Z,40.94
2018-06-14T07:18:51.765Z,40.93
2018-06-14T07:21:19.856Z,42.56
2018-06-14T07:23:47.868Z,42.17
2018-06-14T07:26:15.910Z,42.19
2018-06-14T07:28:43.932Z,41.79
2018-06-14T07:31:11.908Z,42.28
2018-06-14T07:33:39.933Z,43.53
2018-06-14T07:36:07.948Z,43.75
2018-06-14T07:38:35.971Z,43.92
2018-06-14T07:41:04.020Z,42.18
2018-06-14T07:43:32.042Z,42.45
2018-06-14T07:46:00.036Z,43.36
2018-06-14T07:48:28.057Z,43.28
2018-06-14T07:50:56.092Z,44.31
2018-06-14T07:53:24.092Z,43.30
2018-06-14T07:55:52.109Z,43.14
2018-06-14T07:58:20.143Z,41.79
2018-06-14T08:00:48.167Z,42.18
2018-06-14T08:03:16.169Z,41.76
2018-06-14T08:05:44.180Z,41.91
2018-06-14T08:08:12.183Z,40.73
2018-06-14T08:10:40.227Z,38.42
2018-06-14T08:13:08.585Z,37.54
2018-06-14T08:15:36.650Z,36.78
2018-06-14T08:18:04.643Z,38.15
2018-06-14T08:20:32.725Z,37.40
2018-06-14T08:23:00.717Z,37.10
2018-06-14T08:25:28.733Z,38.30
2018-06-14T08:27:56.722Z,36.37
2018-06-14T08:30:24.714Z,37.15
2018-06-14T08:32:52.910Z,37.31
2018-06-14T08:35:21.920Z,36.00
2018-06-14T08:37:49.944Z,37.12
2018-06-14T08:40:17.961Z,38.07
2018-06-14T08:42:45.979Z,37.32
2018-06-14T08:45:14.043Z,36.83
2018-06-14T08:47:42.080Z,36.69
2018-06-14T08:50:10.116Z,38.48
2018-06-14T08:52:38.295Z,39.62
2018-06-14T08:55:06.345Z,39.14
2018-06-14T08:57:35.360Z,37.09
2018-06-14T09:00:03.610Z,38.58
2018-06-14T09:02:32.444Z,37.02
2018-06-14T09:05:00.536Z,36.48
2018-06-14T09:07:28.790Z,38.31
2018-06-14T09:09:56.792Z,37.74
2018-06-14T09:12:24.894Z,37.84
2018-06-14T09:14:53.153Z,38.51
2018-06-14T09:17:21.176Z,38.88
2018-06-14T09:19:49.266Z,38.62
2018-06-14T09:22:17.528Z,37.82
2018-06-14T09:24:45.573Z,38.46
2018-06-14T09:27:13.596Z,37.44
2018-06-14T09:29:41.666Z,38.91
2018-06-14T09:32:09.764Z,38.76
2018-06-14T09:34:37.790Z,38.24
2018-06-14T09:37:05.965Z,37.01
2018-06-14T09:39:34.293Z,36.64
2018-06-14T09:42:02.294Z,37.97
2018-06-14T09:44:30.304Z,38.07
2018-06-14T09:46:58.337Z,37.66
2018-06-14T09:49:26.377Z,37.09
2018-06-14T09:51:54.389Z,38.61
2018-06-14T09:54:22.796Z,37.26
2018-06-14T09:56:51.097Z,37.71
2018-06-14T09:59:19.132Z,38.08
2018-06-14T10:01:47.137Z,38.15
2018-06-14T10:04:15.296Z,40.26
2018-06-14T10:06:43.453Z,36.66
2018-06-14T10:09:12.820Z,36.78
2018-06-14T10:11:40.927Z,36.56
2018-06-14T10:14:09.356Z,35.55
2018-06-14T10:16:37.408Z,34.96
2018-06-14T10:19:05.741Z,35.68
2018-06-14T10:21:33.879Z,35.77
2018-06-14T10:24:01.922Z,36.00
2018-06-14T10:26:29.965Z,36.19
2018-06-14T10:28:58.076Z,34.54
2018-06-14T10:31:26.089Z,33.55
2018-06-14T10:33:54.148Z,33.72
2018-06-14T10:36:22.168Z,32.72
2018-06-14T10:38:50.240Z,33.32
2018-06-14T10:41:18.319Z,35.60
2018-06-14T10:43:46.381Z,34.54
2018-06-14T10:46:14.412Z,33.13
2018-06-14T10:48:42.428Z,33.50
2018-06-14T10:51:10.511Z,33.63
2018-06-14T10:53:38.526Z,33.27
2018-06-14T10:56:06.560Z,35.27
2018-06-14T10:58:34.600Z,34.09
2018-06-14T11:01:02.589Z,33.88
2018-06-14T11:03:30.603Z,33.13
2018-06-14T11:05:58.739Z,33.59
2018-06-14T11:08:26.812Z,34.16
2018-06-14T11:10:54.824Z,34.53
2018-06-14T11:13:22.879Z,34.36
2018-06-14T11:15:50.902Z,34.62
2018-06-14T11:18:18.913Z,34.77
2018-06-14T11:20:46.942Z,34.16
2018-06-14T11:23:14.991Z,34.83
2018-06-14T11:25:43.091Z,33.50
2018-06-14T11:28:11.172Z,33.84
2018-06-14T11:30:39.172Z,34.71
2018-06-14T11:33:07.215Z,34.94
2018-06-14T11:35:35.209Z,35.09
2018-06-14T11:38:03.234Z,35.07
2018-06-14T11:40:31.258Z,34.43
2018-06-14T11:42:59.283Z,34.05
2018-06-14T11:45:27.308Z,33.70
2018-06-14T11:47:55.358Z,34.02
2018-06-14T11:50:23.400Z,33.23
2018-06-14T11:52:51.375Z,32.60
2018-06-14T11:55:19.490Z,33.13
2018-06-14T11:57:47.514Z,32.54
2018-06-14T12:00:15.597Z,32.87
2018-06-14T12:02:43.603Z,33.40
2018-06-14T12:05:11.628Z,33.95
2018-06-14T12:07:39.645Z,33.08
2018-06-14T12:10:07.673Z,33.47
2018-06-14T12:12:35.690Z,34.64
2018-06-14T12:15:03.803Z,34.63
2018-06-14T12:17:31.800Z,34.75
2018-06-14T12:19:59.837Z,35.19
2018-06-14T12:22:27.876Z,34.95
2018-06-14T12:24:55.957Z,35.17
2018-06-14T12:27:23.996Z,32.47
2018-06-14T12:29:52.099Z,34.30
2018-06-14T12:32:20.111Z,33.73
2018-06-14T12:34:48.180Z,32.43
2018-06-14T12:37:16.176Z,33.06
2018-06-14T12:39:44.185Z,31.47
2018-06-14T12:42:12.188Z,32.54
2018-06-14T12:44:40.204Z,32.67
2018-06-14T12:47:08.216Z,33.43
2018-06-14T12:49:36.220Z,33.14
2018-06-14T12:52:04.248Z,34.00
2018-06-14T12:54:32.260Z,32.80
2018-06-14T12:57:00.292Z,31.64
2018-06-14T12:59:28.297Z,31.50
2018-06-14T13:01:56.340Z,31.57
2018-06-14T13:04:24.358Z,31.71
2018-06-14T13:06:52.498Z,31.43
2018-06-14T13:09:20.520Z,31.62
2018-06-14T13:11:48.613Z,31.43
2018-06-14T13:14:16.600Z,30.95
2018-06-14T13:16:44.657Z,31.80
2018-06-14T13:19:12.694Z,32.18
2018-06-14T13:21:40.709Z,31.98
2018-06-14T13:24:08.749Z,31.45
2018-06-14T13:26:36.784Z,32.39
2018-06-14T13:29:04.805Z,32.92
2018-06-14T13:31:32.801Z,31.96
2018-06-14T13:34:00.848Z,31.39
2018-06-14T13:36:29.112Z,30.94
2018-06-14T13:38:57.173Z,30.45
2018-06-14T13:41:25.237Z,32.76
2018-06-14T13:43:53.252Z,32.20
2018-06-14T13:46:21.282Z,31.25
2018-06-14T13:48:49.403Z,32.37
2018-06-14T13:51:17.349Z,31.21
2018-06-14T13:53:45.460Z,29.21
2018-06-14T13:56:13.468Z,29.55
2018-06-14T13:58:41.476Z,29.85
2018-06-14T14:01:09.638Z,29.85
2018-06-14T14:03:37.505Z,28.44
2018-06-14T14:06:05.531Z,28.44
2018-06-14T14:08:33.549Z,29.80
2018-06-14T14:11:01.548Z,30.25
2018-06-14T14:13:29.562Z,30.56
2018-06-14T14:15:57.591Z,29.80
2018-06-14T14:18:25.625Z,30.22
2018-06-14T14:20:53.700Z,30.43
2018-06-14T14:23:21.756Z,30.12
2018-06-14T14:25:49.766Z,30.31
2018-06-14T14:28:17.749Z,30.14
2018-06-14T14:30:45.771Z,31.33
2018-06-14T14:33:13.809Z,30.02
2018-06-14T14:35:41.936Z,30.38
2018-06-14T14:38:09.943Z,29.45
2018-06-14T14:40:37.954Z,29.92
2018-06-14T14:43:05.942Z,30.27
2018-06-14T14:45:33.988Z,30.86
2018-06-14T14:48:02.027Z,30.55
2018-06-14T14:50:30.141Z,30.75
2018-06-14T14:52:58.153Z,30.73
2018-06-14T14:55:26.189Z,31.57
2018-06-14T14:57:54.186Z,31.86
2018-06-14T15:00:22.217Z,31.98
2018-06-14T15:02:50.225Z,31.52
2018-06-14T15:05:18.316Z,32.89
2018-06-14T15:07:46.348Z,32.22
2018-06-14T15:10:14.375Z,32.66
2018-06-14T15:12:42.424Z,30.73
2018-06-14T15:15:10.448Z,31.39
2018-06-14T15:17:38.473Z,31.91
2018-06-14T15:20:06.537Z,31.29
2018-06-14T15:22:34.599Z,32.46
2018-06-14T15:25:02.669Z,31.63
2018-06-14T15:27:30.764Z,31.72
2018-06-14T15:29:58.792Z,30.53
2018-06-14T15:32:26.899Z,31.42
2018-06-14T15:34:54.930Z,31.95
2018-06-14T15:37:23.000Z,33.00
2018-06-14T15:39:51.272Z,33.22
2018-06-14T15:42:19.371Z,33.33
2018-06-14T15:44:47.422Z,34.37
2018-06-14T15:47:15.485Z,32.69
2018-06-14T15:49:43.484Z,32.96
2018-06-14T15:52:11.501Z,34.35
2018-06-14T15:54:39.520Z,34.34
2018-06-14T15:57:07.609Z,34.49
2018-06-14T15:59:35.626Z,33.92
2018-06-14T16:02:03.629Z,34.23
2018-06-14T16:04:31.672Z,34.50
2018-06-14T16:06:59.712Z,34.07
2018-06-14T16:09:27.857Z,35.17
2018-06-14T16:11:55.981Z,34.24
2018-06-14T16:14:24.012Z,34.73
2018-06-14T16:16:52.033Z,35.36
2018-06-14T16:19:20.076Z,35.63
2018-06-14T16:21:48.089Z,34.50
2018-06-14T16:24:16.226Z,34.69
2018-06-14T16:26:44.252Z,34.97
2018-06-14T16:29:12.359Z,35.70
2018-06-14T16:31:40.380Z,35.72
2018-06-14T16:34:08.480Z,36.82
2018-06-14T16:36:36.493Z,36.79
2018-06-14T16:39:07.410Z,36.41
2018-06-14T16:41:35.457Z,37.43
2018-06-14T16:44:03.501Z,39.41
2018-06-14T16:46:31.522Z,39.81
2018-06-14T16:48:59.540Z,39.82
2018-06-14T16:51:27.554Z,40.74
2018-06-14T16:53:55.780Z,42.12
2018-06-14T16:56:23.811Z,43.55
2018-06-14T16:58:51.887Z,45.30
2018-06-14T17:01:19.954Z,47.02
2018-06-14T17:03:47.956Z,48.18
2018-06-14T17:06:16.053Z,51.62
2018-06-14T17:08:44.049Z,53.74
2018-06-14T17:11:12.193Z,57.21
2018-06-14T17:13:40.248Z,58.80
2018-06-14T17:16:08.321Z,60.50
2018-06-14T17:18:36.327Z,61.56
2018-06-14T17:21:04.401Z,61.99
2018-06-14T17:23:33.218Z,64.67
2018-06-14T17:26:01.564Z,67.45
2018-06-14T17:28:29.726Z,69.79
2018-06-14T17:30:57.765Z,72.39
2018-06-14T17:33:25.859Z,71.67
2018-06-14T17:35:53.881Z,73.13
2018-06-14T17:38:21.895Z,75.53
2018-06-14T17:40:49.965Z,75.06
2018-06-14T17:43:18.016Z,75.94
2018-06-14T17:45:46.201Z,75.74
2018-06-14T17:48:14.260Z,76.26
2018-06-14T17:50:42.785Z,77.38
2018-06-14T17:53:10.916Z,76.93
2018-06-14T17:55:38.943Z,76.40
2018-06-14T17:58:07.030Z,76.25
2018-06-14T18:00:35.128Z,76.25
2018-06-14T18:03:03.510Z,76.23
2018-06-14T18:05:31.597Z,76.53
2018-06-14T18:07:59.633Z,76.04
2018-06-14T18:10:27.655Z,75.50
2018-06-14T18:12:55.681Z,76.78
2018-06-14T18:15:23.726Z,75.78
2018-06-14T18:17:51.778Z,75.60
2018-06-14T18:20:19.753Z,76.19
2018-06-14T18:22:47.793Z,76.11
2018-06-14T18:25:15.843Z,75.69
2018-06-14T18:27:43.812Z,75.42
2018-06-14T18:30:11.884Z,76.54
2018-06-14T18:32:39.941Z,76.59
2018-06-14T18:35:07.958Z,76.22
2018-06-14T18:37:35.996Z,75.32
2018-06-14T18:40:04.189Z,74.99
2018-06-14T18:42:32.211Z,75.46
2018-06-14T18:45:00.277Z,74.49
2018-06-14T18:47:28.293Z,75.88
2018-06-14T18:49:56.320Z,75.69
2018-06-14T18:52:24.348Z,74.98
2018-06-14T18:54:52.393Z,74.69
2018-06-14T18:57:20.471Z,74.69
2018-06-14T18:59:48.465Z,75.59
2018-06-14T19:02:16.625Z,75.17
2018-06-14T19:04:44.648Z,75.64
2018-06-14T19:07:12.660Z,74.91
2018-06-14T19:09:40.680Z,75.15
2018-06-14T19:12:08.737Z,74.97
2018-06-14T19:14:36.812Z,76.02
2018-06-14T19:17:04.886Z,74.98
2018-06-14T19:19:32.904Z,75.97
2018-06-14T19:22:01.009Z,76.29
2018-06-14T19:24:29.013Z,76.47
2018-06-14T19:26:57.048Z,76.01
2018-06-14T19:29:25.182Z,77.06
2018-06-14T19:31:53.212Z,77.02
2018-06-14T19:34:21.230Z,77.57
2018-06-14T19:36:49.230Z,77.36
2018-06-14T19:39:17.220Z,78.04
2018-06-14T19:41:45.206Z,78.27
2018-06-14T19:44:13.216Z,78.59
2018-06-14T19:46:41.238Z,77.37
2018-06-14T19:49:09.254Z,77.29
2018-06-14T19:51:37.321Z,77.53
2018-06-14T19:54:05.366Z,78.59
2018-06-14T19:56:33.469Z,77.98
2018-06-14T19:59:01.530Z,78.07
2018-06-14T20:01:29.565Z,78.19
2018-06-14T20:03:57.577Z,78.32
2018-06-14T20:06:25.584Z,79.06
2018-06-14T20:08:53.596Z,78.59
2018-06-14T20:11:21.608Z,79.30
2018-06-14T20:13:49.593Z,78.48
2018-06-14T20:16:17.616Z,78.25
2018-06-14T20:18:45.659Z,78.20
2018-06-14T20:21:13.696Z,78.93
2018-06-14T20:23:41.731Z,78.02
2018-06-14T20:26:10.035Z,77.87
2018-06-14T20:28:38.017Z,79.49
2018-06-14T20:31:06.136Z,78.68
2018-06-14T20:33:34.137Z,78.96
2018-06-14T20:36:02.165Z,78.28
2018-06-14T20:38:30.237Z,78.21
2018-06-14T20:40:58.577Z,78.40
2018-06-14T20:43:26.634Z,78.72
2018-06-14T20:45:54.631Z,78.21
2018-06-14T20:48:22.628Z,77.89
2018-06-14T20:50:50.612Z,78.01
2018-06-14T20:53:18.669Z,78.15
2018-06-14T20:55:46.699Z,78.20
2018-06-14T20:58:14.697Z,78.16
2018-06-14T21:00:42.676Z,77.81
2018-06-14T21:03:10.668Z,79.50
2018-06-14T21:05:38.885Z,79.11
2018-06-14T21:08:06.936Z,78.04
2018-06-14T21:10:34.915Z,79.33
2018-06-14T21:13:02.921Z,78.89
2018-06-14T21:15:31.013Z,79.45
2018-06-14T21:17:59.145Z,79.92
2018-06-14T21:20:27.140Z,80.15
2018-06-14T21:22:55.161Z,79.39
2018-06-14T21:25:23.929Z,79.76
2018-06-14T21:27:51.973Z,79.70
2018-06-14T21:30:20.021Z,79.85
2018-06-14T21:32:48.038Z,79.56
2018-06-14T21:35:16.743Z,79.93
2018-06-14T21:37:44.840Z,80.23
2018-06-14T21:40:12.836Z,79.81
2018-06-14T21:42:40.981Z,79.71
2018-06-14T21:45:09.069Z,79.35
2018-06-14T21:47:37.307Z,79.34
2018-06-14T21:50:05.320Z,80.12
2018-06-14T21:52:33.324Z,79.04
2018-06-14T21:55:01.446Z,79.90
2018-06-14T21:57:29.444Z,79.43
2018-06-14T21:59:57.494Z,78.98
2018-06-14T22:02:25.640Z,79.53
2018-06-14T22:04:53.676Z,79.50
2018-06-14T22:07:21.745Z,79.50
2018-06-14T22:09:49.794Z,78.35
2018-06-14T22:12:17.892Z,78.32
2018-06-14T22:14:45.885Z,78.67
2018-06-14T22:17:13.909Z,78.27
2018-06-14T22:19:41.945Z,77.89
2018-06-14T22:22:10.102Z,78.88
2018-06-14T22:24:38.132Z,78.97
2018-06-14T22:27:06.184Z,78.19
2018-06-14T22:29:34.206Z,78.25
2018-06-14T22:32:02.191Z,78.64
2018-06-14T22:34:41.630Z,78.97
2018-06-14T22:37:09.631Z,78.54
2018-06-14T22:39:37.629Z,80.40
2018-06-14T22:42:05.612Z,80.38
2018-06-14T22:44:33.633Z,80.05
2018-06-14T22:47:01.622Z,79.16
2018-06-14T22:49:29.712Z,80.03
2018-06-14T22:53:12.977Z,80.03
2018-06-14T22:55:40.972Z,80.89
2018-06-14T22:58:08.980Z,79.58
2018-06-14T23:01:46.480Z,80.41
2018-06-14T23:04:15.972Z,80.05
2018-06-14T23:06:43.973Z,79.73
2018-06-14T23:10:25.359Z,78.99
2018-06-14T23:12:53.369Z,80.20
2018-06-14T23:15:21.679Z,80.17
2018-06-14T23:17:50.381Z,79.87
2018-06-14T23:20:19.585Z,79.11
2018-06-14T23:22:48.782Z,79.73
2018-06-14T23:25:17.392Z,78.89
2018-06-14T23:27:45.408Z,78.61
2018-06-14T23:30:13.421Z,79.44
2018-06-14T23:32:41.442Z,80.52
2018-06-14T23:35:09.485Z,80.52
2018-06-14T23:37:37.509Z,79.67
2018-06-14T23:40:05.561Z,79.54
2018-06-14T23:42:33.583Z,79.51
2018-06-14T23:45:01.638Z,79.83
2018-06-14T23:47:29.664Z,79.24
2018-06-14T23:49:57.750Z,79.87
2018-06-14T23:52:25.957Z,80.35
2018-06-14T23:54:54.010Z,79.57
2018-06-14T23:57:22.064Z,79.15
2018-06-14T23:59:50.661Z,79.91
